»·PEaware :: N751LU S36-KORS

N751LU :: S36-KORS

FLIGHT INFORMATION

Flight Status: Arrived
Operator: Privately registered:
United States
More flights under this callsign
Pilot: Ewen S. (18928)
Aircraft: Unknown
(RV10)
More flights by this aircraft type
Origin: S36 Norman Grier Field
United States
Destination: KORS Orcas Island
United States
More flights between these airports :: More routes between these airports
Route: VPMLB
File this flight plan on PilotEdge
Remarks:
Altitude:
(Current/Filed)
4,500ft
Speed:
(Current/Filed)
145kts
Departed: 04-May-20 12:00 PM
Arrived: 04-May-20 12:44 PM
Distance/Time
Traveled:
88nm/0:44
Distance/Time
To Go:
Arrived

Flight Plot

Page will automatically refresh every two minutes.

Flight plan parsing failed; only flown route is shown


Map Options




Map Legend


Flown Route
Filed Route
Departure Airport
Arrival Airport
Navaid (VOR, NDB)
Fix

Horizontal Profiles

Position Reports

Time Latitude Longitude Heading Altitude Ground
Speed
04-May-20 11:48 47.340164 -122.103767 171 476ft 0kts
04-May-20 11:49 47.340164 -122.103767 171 476ft 0kts
04-May-20 11:50 47.340164 -122.103767 171 476ft 0kts
04-May-20 11:51 47.340164 -122.103767 171 476ft 0kts
04-May-20 11:52 47.340164 -122.103767 171 476ft 0kts
04-May-20 11:53 47.340164 -122.103767 171 476ft 0kts
04-May-20 11:54 47.340164 -122.103767 171 476ft 0kts
04-May-20 11:55 47.340164 -122.103767 171 476ft 0kts
04-May-20 11:56 47.340164 -122.103767 171 476ft 0kts
04-May-20 11:57 47.340170 -122.103949 330 476ft 3kts
04-May-20 11:58 47.341444 -122.104294 323 476ft 2kts
04-May-20 11:59 47.328795 -122.100310 154 881ft 112kts
04-May-20 12:00 47.316190 -122.077141 27 2448ft 118kts
04-May-20 12:01 47.355813 -122.085095 2 2493ft 146kts
04-May-20 12:03 47.395552 -122.083766 24 2501ft 142kts
04-May-20 12:04 47.433961 -122.067897 13 2495ft 144kts
04-May-20 12:05 47.473167 -122.052976 14 2490ft 145kts
04-May-20 12:06 47.509216 -122.039517 15 3068ft 123kts
04-May-20 12:07 47.542044 -122.038470 349 3704ft 119kts
04-May-20 12:08 47.574267 -122.048294 349 4349ft 117kts
04-May-20 12:09 47.609725 -122.058944 349 4494ft 144kts
04-May-20 12:10 47.650276 -122.071141 349 4491ft 151kts
04-May-20 12:11 47.691473 -122.083538 349 4491ft 151kts
04-May-20 12:12 47.732848 -122.096044 349 4490ft 151kts
04-May-20 12:13 47.774303 -122.108558 349 4490ft 151kts
04-May-20 12:14 47.816800 -122.118341 356 4491ft 156kts
04-May-20 12:15 47.860498 -122.123648 356 4494ft 157kts
04-May-20 12:16 47.904266 -122.128751 356 4508ft 157kts
04-May-20 12:17 47.948012 -122.133945 356 4521ft 157kts
04-May-20 12:18 47.991676 -122.139084 356 4542ft 156kts
04-May-20 12:18 48.028293 -122.143400 356 4544ft 158kts
04-May-20 12:20 48.079638 -122.149487 356 4545ft 157kts
04-May-20 12:21 48.123481 -122.154663 356 4544ft 158kts
04-May-20 12:21 48.160070 -122.159268 348 4544ft 157kts
04-May-20 12:22 48.198417 -122.190935 330 4545ft 158kts
04-May-20 12:23 48.236996 -122.223464 330 4545ft 158kts
04-May-20 12:24 48.275521 -122.256025 330 4545ft 158kts
04-May-20 12:25 48.313810 -122.288449 330 4545ft 158kts
04-May-20 12:26 48.352179 -122.320964 330 4544ft 157kts
04-May-20 12:27 48.390236 -122.353337 330 4545ft 157kts
04-May-20 12:28 48.428282 -122.385782 330 4544ft 157kts
04-May-20 12:29 48.466343 -122.418256 330 4544ft 157kts
04-May-20 12:30 48.493504 -122.468770 305 4535ft 156kts
04-May-20 12:31 48.519321 -122.521474 305 4534ft 163kts
04-May-20 12:32 48.547278 -122.578694 306 3814ft 161kts
04-May-20 12:33 48.575126 -122.628799 315 2863ft 154kts
04-May-20 12:34 48.603409 -122.671366 315 2504ft 127kts
04-May-20 12:35 48.626960 -122.706673 315 2508ft 114kts
04-May-20 12:36 48.649411 -122.740375 315 2510ft 116kts
04-May-20 12:37 48.677655 -122.782827 315 2203ft 158kts
04-May-20 12:38 48.708979 -122.830021 315 1800ft 151kts
04-May-20 12:39 48.746273 -122.846765 354 1497ft 137kts
04-May-20 12:40 48.759376 -122.888680 269 1337ft 140kts
04-May-20 12:41 48.744099 -122.926027 153 1028ft 121kts
04-May-20 12:42 48.721153 -122.911426 167 351ft 78kts
04-May-20 12:43 48.707326 -122.910022 150 30ft 2kts
04-May-20 12:44 48.706931 -122.908843 340 30ft 0kts
04-May-20 12:45 48.706931 -122.908842 340 30ft 0kts

Navigation Log

Ident Type
Flight plan parsing failed, navigation log unavailable